Time;durP1;ratioP1;P1;durP2;ratioP2;P2;SDS_P1;SDS_P2;PMS_P1;PMS_P2;Temp;Humidity;BMP_temperature;BMP_pressure;BME280_temperature;BME280_humidity;BME280_pressure;Samples;Min_cycle;Max_cycle;Signal;HPM_P1;HPM_P2
2021/04/12 00:02:26;;;;;;;5.67;4.20;;;4.30;94.30;;;4.92;72.52;97744.44;4911232;29;20060;-66
2021/04/12 00:05:24;;;;;;;4.20;3.33;;;4.40;93.50;;;4.84;72.16;97746.84;4897118;29;20063;-67
2021/04/12 00:08:26;;;;;;;4.10;3.30;;;4.40;91.00;;;4.97;71.58;97748.50;4896937;29;20066;-67
2021/04/12 00:11:12;;;;;;;6.03;3.33;;;4.50;93.10;;;5.04;72.32;97752.31;4910020;29;20075;-66
2021/04/12 00:14:05;;;;;;;5.00;3.60;;;4.50;92.20;;;5.01;71.89;97755.22;4910571;29;20060;-66
2021/04/12 00:16:41;;;;;;;6.50;4.10;;;4.40;92.50;;;5.01;71.88;97756.03;4894643;29;20052;-66
2021/04/12 00:19:29;;;;;;;5.43;4.20;;;4.40;93.70;;;5.03;71.99;97759.41;4895294;29;20052;-66
2021/04/12 00:22:03;;;;;;;5.73;4.47;;;4.60;92.10;;;5.02;71.87;97757.75;4895097;29;20055;-66
2021/04/12 00:24:50;;;;;;;5.70;4.53;;;4.60;91.30;;;4.77;71.12;97761.50;4893517;29;20052;-66
2021/04/12 00:27:47;;;;;;;5.60;4.70;;;4.30;89.70;;;4.79;71.72;97772.75;4880605;29;20067;-66
2021/04/12 00:30:24;;;;;;;8.50;5.33;;;4.20;92.60;;;4.77;72.17;97776.47;4895375;29;20055;-66
2021/04/12 00:33:05;;;;;;;6.63;5.00;;;4.20;93.70;;;4.86;72.74;97783.66;4894080;29;20056;-66
2021/04/12 00:35:52;;;;;;;7.30;4.73;;;4.40;93.60;;;4.70;71.52;97769.03;4909887;29;20063;-66
2021/04/12 00:39:03;;;;;;;7.33;5.07;;;4.20;91.30;;;4.68;71.67;97776.25;4894405;29;20071;-65
2021/04/12 00:42:04;;;;;;;7.23;5.10;;;4.20;91.40;;;4.74;72.14;97796.84;4909617;29;20051;-66
2021/04/12 00:44:41;;;;;;;5.83;4.80;;;4.20;91.90;;;4.74;71.40;97815.31;4895314;29;20082;-66
2021/04/12 00:48:15;;;;;;;7.47;4.70;;;4.20;91.50;;;4.73;71.21;97818.94;4894698;29;20052;-66
2021/04/12 00:51:00;;;;;;;8.50;5.03;;;4.20;91.20;;;4.53;71.60;97822.25;4777414;29;20063;-64
2021/04/12 00:53:49;;;;;;;7.27;5.13;;;4.10;90.70;;;4.64;71.33;97829.34;4891798;29;20056;-66
2021/04/12 00:56:32;;;;;;;7.50;4.77;;;4.10;91.20;;;4.38;72.61;97826.09;4909572;29;20060;-66
2021/04/12 00:59:44;;;;;;;5.70;4.43;;;4.00;92.90;;;4.04;72.61;97824.22;4909845;29;20090;-65
2021/04/12 01:03:03;;;;;;;7.63;6.00;;;3.60;93.10;;;4.25;72.97;97842.84;4893192;29;20055;-66
2021/04/12 01:06:00;;;;;;;8.80;5.90;;;3.90;94.20;;;4.20;72.91;97839.72;4837782;29;20459;-66
2021/04/12 01:09:06;;;;;;;5.63;4.03;;;3.80;94.90;;;3.95;73.58;97843.34;4836621;29;20059;-65
2021/04/12 01:12:31;;;;;;;8.37;6.07;;;3.60;93.90;;;4.21;73.08;97846.66;4909674;29;20066;-65
2021/04/12 01:14:59;;;;;;;10.13;5.97;;;3.80;94.00;;;4.31;73.00;97857.34;4908594;29;20275;-65
2021/04/12 01:17:45;;;;;;;9.63;6.53;;;3.90;93.90;;;4.41;72.70;97852.22;4910253;29;20054;-65
2021/04/12 01:20:43;;;;;;;8.50;6.40;;;4.10;92.80;;;4.16;72.64;97861.16;4893962;29;20364;-65
2021/04/12 01:23:41;;;;;;;7.10;4.97;;;3.90;91.20;;;3.97;72.90;97851.97;4909480;29;20078;-65
2021/04/12 01:27:09;;;;;;;8.47;6.23;;;3.60;93.00;;;3.93;73.43;97856.63;4910421;29;20469;-65
2021/04/12 01:30:22;;;;;;;9.00;6.10;;;3.50;94.30;;;4.05;73.28;97875.97;4850503;29;20073;-66
2021/04/12 01:33:53;;;;;;;5.90;5.20;;;3.70;94.60;;;3.84;72.79;97869.66;4909417;29;20055;-66
2021/04/12 01:36:44;;;;;;;8.43;5.67;;;3.50;93.30;;;4.10;72.72;97875.63;4895187;29;20059;-66
2021/04/12 01:39:29;;;;;;;9.17;5.63;;;3.60;94.10;;;4.18;72.08;97878.50;4891152;29;20385;-67
2021/04/12 01:42:38;;;;;;;9.57;7.00;;;3.70;93.50;;;4.12;72.22;97877.19;4909189;29;20367;-67
2021/04/12 01:45:45;;;;;;;7.30;5.33;;;3.80;92.20;;;3.99;73.01;97881.69;4895947;29;20078;-67
2021/04/12 01:48:36;;;;;;;9.07;6.23;;;3.60;92.90;;;3.91;72.97;97890.16;4908821;29;20040;-67
2021/04/12 01:51:57;;;;;;;8.10;5.73;;;3.50;93.20;;;3.90;72.72;97898.19;4908003;29;20254;-67
2021/04/12 01:55:07;;;;;;;7.57;5.17;;;3.50;93.50;;;3.97;72.48;97890.66;4906173;29;20390;-67
2021/04/12 01:57:53;;;;;;;7.67;5.33;;;3.50;93.50;;;3.86;72.64;97888.84;4910701;29;20277;-67
2021/04/12 02:00:57;;;;;;;8.60;5.90;;;3.40;92.50;;;4.11;72.31;97904.50;4908821;29;20170;-68
2021/04/12 02:03:24;;;;;;;8.37;6.30;;;3.60;93.30;;;4.19;72.00;97910.97;4906974;29;20455;-68
2021/04/12 02:06:23;;;;;;;8.93;6.80;;;3.70;91.80;;;4.08;72.17;97917.06;4908658;29;20056;-67
2021/04/12 02:09:25;;;;;;;;;;;3.60;93.00;;;4.12;72.22;97929.03;4910306;29;20075;-68
2021/04/12 02:12:32;;;;;;;8.07;5.30;;;3.70;92.80;;;4.19;71.95;97939.97;4909385;29;20121;-67
2021/04/12 02:15:56;;;;;;;8.10;5.97;;;3.70;92.20;;;3.87;72.23;97943.19;4908738;29;20055;-68
2021/04/12 02:18:58;;;;;;;7.67;5.37;;;3.60;90.50;;;3.89;72.17;97952.66;4894943;29;20066;-67
2021/04/12 02:21:50;;;;;;;9.07;5.27;;;3.40;92.20;;;3.88;72.12;97952.78;4908330;29;20060;-67
2021/04/12 02:24:46;;;;;;;7.50;4.73;;;3.40;92.40;;;3.61;72.55;97956.44;4908452;29;20056;-67
2021/04/12 02:27:44;;;;;;;7.93;5.30;;;3.30;92.00;;;3.65;71.95;97967.59;4893721;29;20061;-67
2021/04/12 02:30:39;;;;;;;7.37;5.00;;;3.30;91.50;;;3.66;72.50;97959.56;4876771;29;20063;-67
2021/04/12 02:33:37;;;;;;;7.20;5.05;;;3.30;92.50;;;3.64;72.96;97964.09;4909420;29;20055;-67
2021/04/12 02:36:35;;;;;;;10.10;6.43;;;3.20;93.10;;;3.62;72.73;97957.28;4908545;29;20048;-68
2021/04/12 02:39:34;;;;;;;11.20;6.27;;;3.20;93.30;;;3.67;72.72;97968.34;4892760;29;20064;-67
2021/04/12 02:42:21;;;;;;;9.47;5.13;;;3.20;93.40;;;3.41;73.16;97957.00;4908162;29;20067;-68
2021/04/12 02:45:19;;;;;;;9.97;5.53;;;3.10;92.00;;;3.41;73.17;97965.75;4891073;29;20372;-68
2021/04/12 02:48:00;;;;;;;6.03;4.47;;;3.10;92.80;;;3.55;73.11;97973.53;4913517;29;20346;-68
2021/04/12 02:50:58;;;;;;;7.20;5.00;;;3.20;92.10;;;3.55;73.16;97973.53;4911691;29;20055;-68
2021/04/12 02:53:59;;;;;;;8.57;5.10;;;3.20;92.80;;;3.78;72.45;97988.63;4913035;29;20067;-68
2021/04/12 02:56:52;;;;;;;7.80;5.07;;;3.40;92.70;;;3.66;71.96;97975.38;4912629;29;20078;-68
2021/04/12 03:00:06;;;;;;;6.80;5.43;;;3.40;90.40;;;3.82;72.18;97985.66;4897860;29;20066;-68
2021/04/12 03:03:23;;;;;;;10.37;7.90;;;3.40;91.50;;;3.57;72.43;97988.34;4898720;29;20060;-68
2021/04/12 03:06:18;;;;;;;10.50;8.77;;;3.30;91.20;;;3.79;72.56;97988.50;4913326;29;20052;-68
2021/04/12 03:08:54;;;;;;;8.77;5.93;;;3.30;92.30;;;3.63;72.92;97986.13;4897452;29;20067;-68
2021/04/12 03:11:50;;;;;;;9.60;5.90;;;3.20;92.40;;;3.52;72.96;97999.22;4911184;29;20066;-68
2021/04/12 03:14:55;;;;;;;7.73;6.37;;;3.10;92.40;;;3.34;72.91;98015.34;4912101;29;20231;-68
2021/04/12 03:17:40;;;;;;;10.07;6.18;;;3.00;92.80;;;3.42;72.94;98016.63;4912414;29;20078;-68
2021/04/12 03:20:35;;;;;;;10.73;6.33;;;3.20;92.10;;;3.56;73.25;98027.00;4911278;29;20060;-68
2021/04/12 03:23:34;;;;;;;9.87;6.17;;;3.30;93.00;;;3.44;73.19;98020.81;4912905;29;20228;-66
2021/04/12 03:26:16;;;;;;;9.47;6.43;;;3.20;92.40;;;3.44;73.17;98015.56;4891928;29;20071;-65
2021/04/12 03:29:27;;;;;;;9.60;6.60;;;3.00;93.20;;;3.37;72.91;98022.19;4894953;29;20060;-66
2021/04/12 03:32:14;;;;;;;7.73;5.67;;;3.00;93.40;;;3.48;72.81;98029.34;4911129;29;20050;-65
2021/04/12 03:34:47;;;;;;;10.83;7.17;;;3.00;93.30;;;3.54;73.14;98019.22;4911397;29;20052;-66
2021/04/12 03:37:37;;;;;;;10.03;6.43;;;3.10;93.00;;;3.65;72.81;98026.38;4912817;29;20062;-65
2021/04/12 03:40:23;;;;;;;8.30;5.47;;;3.30;92.00;;;3.52;73.23;98039.53;4895680;29;20546;-66
2021/04/12 03:43:36;;;;;;;9.70;5.20;;;3.20;91.80;;;3.41;73.00;98041.25;4910004;29;20068;-66
2021/04/12 03:46:21;;;;;;;7.00;5.00;;;3.00;91.60;;;3.45;72.77;98026.91;4911653;29;20066;-66
2021/04/12 03:49:31;;;;;;;7.00;5.00;;;3.10;92.50;;;3.44;73.02;98033.97;4895071;29;20882;-66
2021/04/12 03:52:38;;;;;;;6.67;4.43;;;3.20;92.30;;;3.07;73.22;98028.63;4889980;29;20423;-65
2021/04/12 03:56:00;;;;;;;6.67;4.70;;;2.80;92.90;;;3.27;72.93;98037.78;4893766;29;20343;-65
2021/04/12 03:59:11;;;;;;;6.87;4.80;;;2.80;93.70;;;3.09;73.70;98049.56;4909841;29;20063;-65
2021/04/12 04:02:24;;;;;;;6.73;4.33;;;2.80;93.10;;;3.29;72.90;98056.09;4911277;29;20077;-66
2021/04/12 04:05:34;;;;;;;10.63;4.90;;;2.80;92.80;;;3.28;72.53;98072.84;4893178;29;20382;-65
2021/04/12 04:08:50;;;;;;;6.27;4.60;;;2.90;92.20;;;3.21;72.72;98084.72;4894945;29;20385;-65
2021/04/12 04:11:24;;;;;;;7.43;5.07;;;2.80;92.20;;;3.16;72.61;98098.22;4911261;29;20062;-66
2021/04/12 04:14:51;;;;;;;8.05;5.47;;;2.70;92.00;;;2.89;73.14;98100.88;4910333;29;20056;-65
2021/04/12 04:18:01;;;;;;;7.43;5.60;;;2.50;91.30;;;2.93;72.30;98097.13;4853439;29;20045;-66
2021/04/12 04:21:29;;;;;;;8.13;5.07;;;2.60;92.80;;;2.88;72.55;98105.28;4894619;29;20090;-65
2021/04/12 04:24:26;;;;;;;9.70;6.20;;;2.50;92.70;;;2.84;72.50;98106.44;4882654;29;20238;-65
2021/04/12 04:27:34;;;;;;;8.87;5.70;;;2.30;92.50;;;2.83;72.49;98112.66;4883326;29;20059;-66
2021/04/12 04:33:30;;;;;;;9.98;6.18;;;2.50;92.30;;;3.07;72.13;98107.53;4916319;29;20056;-45
2021/04/12 04:36:44;;;;;;;9.90;6.27;;;2.60;92.40;;;3.11;71.92;98118.72;4890473;29;20052;-44
2021/04/12 04:39:17;;;;;;;10.87;6.90;;;2.50;92.10;;;3.21;71.84;98113.69;4886532;29;20063;-46
2021/04/12 04:42:37;;;;;;;9.20;6.83;;;2.70;92.00;;;3.21;71.88;98114.50;4892473;29;20084;-44
2021/04/12 04:46:09;;;;;;;9.77;6.87;;;2.80;91.20;;;3.05;72.13;98124.38;4884198;29;20432;-44
2021/04/12 04:48:51;;;;;;;9.90;6.77;;;2.50;92.30;;;3.01;72.41;98115.84;4889015;29;20384;-43
2021/04/12 04:51:46;;;;;;;9.73;6.87;;;2.50;93.40;;;2.97;72.75;98127.53;4891491;29;20073;-45
2021/04/12 04:55:04;;;;;;;10.13;7.63;;;2.50;93.10;;;3.01;72.72;98136.91;4887331;29;20057;-44
2021/04/12 04:57:53;;;;;;;11.37;7.63;;;2.50;94.00;;;2.99;72.90;98138.78;4883899;29;20074;-44
2021/04/12 05:00:54;;;;;;;11.43;8.33;;;2.50;93.60;;;3.11;72.76;98150.28;4892143;29;20055;-45
2021/04/12 05:04:06;;;;;;;12.20;7.53;;;2.60;93.30;;;3.01;72.72;98163.19;4886695;29;20060;-43
2021/04/12 05:07:01;;;;;;;10.93;7.00;;;2.50;93.80;;;2.99;73.17;98170.34;4891666;29;20068;-46
2021/04/12 05:10:17;;;;;;;11.07;7.57;;;2.60;94.10;;;2.99;73.62;98178.25;4871047;29;20053;-46
2021/04/12 05:13:00;;;;;;;11.70;7.50;;;2.60;94.70;;;2.91;73.28;98181.38;4889505;29;20044;-47
2021/04/12 05:15:46;;;;;;;12.93;8.85;;;2.40;94.50;;;2.83;73.76;98182.81;4890294;29;20067;-43
2021/04/12 05:18:58;;;;;;;11.43;7.67;;;2.30;95.50;;;2.84;73.62;98190.59;4886013;29;20060;-48
2021/04/12 05:21:29;;;;;;;10.97;6.80;;;2.40;95.10;;;2.78;74.51;98190.16;4885923;29;20056;-44
2021/04/12 05:24:16;;;;;;;11.50;7.93;;;2.40;94.40;;;3.02;73.74;98193.81;4890594;29;20730;-45
2021/04/12 05:27:04;;;;;;;13.37;7.77;;;2.60;95.10;;;2.89;74.01;98200.81;4887777;29;20060;-44
2021/04/12 05:30:07;;;;;;;14.20;9.97;;;2.60;94.50;;;2.78;74.75;98200.69;4885296;29;20065;-46
2021/04/12 05:33:04;;;;;;;10.67;7.57;;;2.40;94.60;;;2.95;73.93;98211.78;4884911;29;20056;-48
2021/04/12 05:36:24;;;;;;;15.03;7.87;;;2.60;95.10;;;3.08;73.50;98211.84;4885651;29;20057;-45
2021/04/12 05:39:26;;;;;;;11.80;8.13;;;2.60;94.40;;;3.04;73.41;98217.38;4889538;29;20056;-43
2021/04/12 05:42:35;;;;;;;13.13;7.60;;;2.60;94.10;;;3.11;73.58;98218.69;4890676;29;20056;-46
2021/04/12 05:45:31;;;;;;;11.57;8.20;;;2.70;94.70;;;3.15;73.42;98221.00;4890699;29;20356;-44
2021/04/12 05:48:50;;;;;;;12.13;8.83;;;2.80;94.40;;;3.14;73.72;98223.72;4891003;29;20044;-43
2021/04/12 05:51:37;;;;;;;11.13;7.10;;;2.80;94.50;;;3.12;73.47;98233.50;4884165;29;20314;-45
2021/04/12 05:54:16;;;;;;;12.20;8.57;;;2.70;93.60;;;3.09;73.40;98228.47;4879402;29;20467;-43
2021/04/12 05:56:55;;;;;;;12.50;8.60;;;2.60;94.30;;;3.14;73.93;98239.50;4887434;29;20064;-44
2021/04/12 05:59:53;;;;;;;13.10;9.07;;;2.80;93.50;;;3.09;73.68;98237.19;4890212;29;20164;-45
2021/04/12 06:02:51;;;;;;;12.57;8.03;;;2.70;94.00;;;3.13;73.83;98248.38;4886109;29;20048;-45
2021/04/12 06:06:04;;;;;;;11.50;8.07;;;2.90;93.40;;;3.06;74.26;98252.34;4883026;29;20071;-44
2021/04/12 06:08:44;;;;;;;13.50;8.70;;;2.90;93.20;;;3.19;73.71;98250.59;4886126;29;20066;-43
2021/04/12 06:12:02;;;;;;;13.43;8.47;;;2.90;93.50;;;3.30;73.55;98263.91;4890386;29;20060;-43
2021/04/12 06:15:23;;;;;;;11.87;8.00;;;2.90;93.70;;;3.43;73.63;98281.50;4873244;29;20068;-44
2021/04/12 06:18:37;;;;;;;12.70;7.57;;;3.10;94.20;;;3.31;73.71;98281.38;4890214;29;20068;-43
2021/04/12 06:21:13;;;;;;;10.10;6.73;;;3.10;93.90;;;3.25;73.74;98288.81;4888485;29;20060;-42
2021/04/12 06:24:23;;;;;;;11.13;7.13;;;3.00;93.00;;;3.37;73.76;98284.56;4889360;29;20048;-40
2021/04/12 06:27:39;;;;;;;9.13;6.43;;;3.00;93.10;;;3.18;73.99;98284.91;4871633;29;20057;-41
2021/04/12 06:30:09;;;;;;;9.87;6.87;;;3.00;92.20;;;3.19;73.78;98295.34;4889827;29;20055;-41
2021/04/12 06:33:32;;;;;;;11.17;7.27;;;2.80;94.00;;;3.25;73.67;98284.41;4888917;29;20048;-41
2021/04/12 06:36:46;;;;;;;9.77;6.80;;;2.90;92.80;;;3.23;73.44;98306.50;4882942;29;20060;-42
2021/04/12 06:40:09;;;;;;;12.53;6.67;;;2.90;93.10;;;3.26;73.32;98304.53;4888021;29;20366;-41
2021/04/12 06:43:06;;;;;;;10.37;6.57;;;3.00;92.30;;;3.28;73.12;98310.53;4887347;29;20220;-45
2021/04/12 06:46:26;;;;;;;10.50;7.00;;;2.90;92.90;;;3.24;73.16;98323.97;4888489;29;20459;-41
2021/04/12 06:49:39;;;;;;;8.97;6.10;;;2.90;92.20;;;3.24;73.41;98326.59;4889704;29;20051;-43
2021/04/12 06:52:45;;;;;;;9.20;6.00;;;2.80;93.20;;;3.17;73.28;98335.84;4867792;29;20325;-41
2021/04/12 06:55:22;;;;;;;9.60;5.60;;;2.80;92.80;;;2.99;74.03;98335.25;4865018;29;20053;-41
2021/04/12 06:58:19;;;;;;;10.50;6.43;;;2.70;93.40;;;3.25;73.67;98339.66;4889064;29;20221;-43
2021/04/12 07:01:23;;;;;;;11.80;6.30;;;2.80;94.30;;;3.14;73.56;98348.25;4888618;29;20059;-44
2021/04/12 07:04:09;;;;;;;12.07;6.90;;;2.90;92.50;;;3.32;73.17;98340.13;4884936;29;20064;-41
2021/04/12 07:07:17;;;;;;;11.77;7.10;;;2.90;93.40;;;3.52;73.08;98341.47;4869974;29;20098;-43
2021/04/12 07:10:04;;;;;;;11.30;7.30;;;3.10;93.80;;;3.63;73.03;98338.97;4888052;29;20235;-42
2021/04/12 07:13:15;;;;;;;11.43;6.63;;;3.30;92.40;;;3.68;72.93;98347.44;4884279;29;20049;-43
2021/04/12 07:16:18;;;;;;;13.47;7.10;;;3.40;91.30;;;3.49;72.56;98354.81;4886413;29;20052;-42
2021/04/12 07:19:31;;;;;;;11.70;7.93;;;3.40;91.00;;;3.51;72.75;98356.44;4888675;29;20060;-40
2021/04/12 07:22:36;;;;;;;13.83;8.90;;;3.20;91.10;;;3.41;73.16;98357.94;4882466;29;20057;-41
2021/04/12 07:25:59;;;;;;;12.80;8.32;;;3.20;91.60;;;3.46;73.57;98361.13;4888932;29;20074;-40
2021/04/12 07:29:00;;;;;;;15.60;9.27;;;3.40;91.00;;;3.49;73.37;98367.97;4885996;29;20535;-42
2021/04/12 07:32:34;;;;;;;13.53;8.80;;;3.30;92.00;;;3.52;73.44;98375.69;4885989;29;20060;-44
2021/04/12 07:35:42;;;;;;;17.73;9.03;;;3.30;92.10;;;3.41;73.29;98384.28;4857659;29;20096;-42
2021/04/12 07:39:04;;;;;;;17.63;9.00;;;3.20;92.30;;;3.34;74.01;98388.25;4893211;29;20064;-42
2021/04/12 07:42:14;;;;;;;16.17;8.10;;;3.30;91.50;;;3.55;73.51;98386.88;4914584;29;20063;-43
2021/04/12 07:45:59;;;;;;;12.97;8.10;;;3.50;91.50;;;3.61;73.55;98388.28;4913585;29;20050;-43
2021/04/12 07:48:54;;;;;;;15.13;9.00;;;3.50;91.10;;;3.60;73.38;98397.09;4846453;29;20300;-42
2021/04/12 07:52:05;;;;;;;13.47;9.33;;;3.40;91.50;;;3.66;72.96;98403.75;4912358;29;20067;-41
2021/04/12 07:55:03;;;;;;;14.93;9.27;;;3.50;89.50;;;3.72;73.32;98404.22;4911863;29;20048;-43
2021/04/12 07:58:01;;;;;;;13.87;9.50;;;3.50;90.30;;;3.60;72.60;98409.44;4906639;29;20052;-41
2021/04/12 08:01:06;;;;;;;17.27;8.90;;;3.40;90.30;;;3.66;73.20;98415.13;4902124;29;20067;-41
2021/04/12 08:04:11;;;;;;;14.77;8.85;;;3.40;90.60;;;3.68;73.33;98422.94;4905501;29;20125;-41
2021/04/12 08:07:34;;;;;;;11.77;9.35;;;3.50;91.30;;;3.70;72.71;98419.28;4911299;29;20060;-41
2021/04/12 08:10:51;;;;;;;10.93;8.03;;;3.60;90.80;;;3.53;72.62;98428.25;4909239;29;20056;-43
2021/04/12 08:13:51;;;;;;;12.70;8.63;;;3.60;87.90;;;3.79;72.92;98433.63;4907731;29;20253;-43
2021/04/12 08:17:11;;;;;;;12.07;8.33;;;3.70;90.00;;;3.71;71.95;98434.13;4829248;29;20048;-41
2021/04/12 08:19:48;;;;;;;15.10;9.00;;;3.70;88.20;;;3.89;72.51;98431.25;4907648;29;20062;-42
2021/04/12 08:23:13;;;;;;;13.13;7.60;;;3.80;89.70;;;3.69;72.00;98437.81;4910696;29;20254;-43
2021/04/12 08:26:28;;;;;;;15.10;8.50;;;3.70;87.70;;;3.80;72.22;98437.09;4910490;29;20048;-44
2021/04/12 08:29:35;;;;;;;14.02;8.48;;;3.70;88.50;;;3.74;72.06;98439.22;4910717;29;20058;-42
2021/04/12 08:32:40;;;;;;;14.10;8.27;;;3.60;88.20;;;3.87;71.32;98430.50;4902758;29;20236;-42
2021/04/12 08:35:30;;;;;;;12.30;9.23;;;3.80;87.00;;;3.97;71.72;98439.47;4907825;29;20064;-42
2021/04/12 08:38:44;;;;;;;14.47;9.83;;;3.90;88.80;;;3.88;71.83;98450.66;4910636;29;20425;-42
2021/04/12 08:41:31;;;;;;;15.33;8.87;;;3.80;88.20;;;3.83;71.25;98450.91;4894277;29;20245;-41
2021/04/12 08:44:43;;;;;;;14.67;8.93;;;3.80;86.50;;;3.89;71.40;98439.97;4896881;29;20429;-42
2021/04/12 08:47:53;;;;;;;17.70;10.53;;;3.80;87.30;;;3.89;70.10;98450.53;4910234;29;20067;-45
2021/04/12 08:50:44;;;;;;;13.33;8.13;;;3.90;87.20;;;3.85;71.32;98449.03;4872031;29;20059;-41
2021/04/12 08:53:41;;;;;;;14.40;9.10;;;3.90;85.50;;;3.88;71.33;98455.91;4892915;29;20387;-42
2021/04/12 08:56:57;;;;;;;15.87;9.03;;;3.90;86.00;;;3.97;71.04;98457.94;4903906;29;20055;-44
2021/04/12 09:00:14;;;;;;;14.32;8.68;;;3.90;87.40;;;4.15;71.62;98463.81;4909740;29;20074;-44
2021/04/12 09:03:19;;;;;;;12.87;7.60;;;4.00;88.20;;;4.05;69.95;98466.19;4908787;29;20365;-41
2021/04/12 09:06:08;;;;;;;13.37;9.60;;;4.00;83.50;;;4.22;70.34;98469.50;4910137;29;20044;-42
2021/04/12 09:09:00;;;;;;;12.63;8.60;;;4.10;83.40;;;4.28;70.63;98472.56;4908835;29;20056;-42
2021/04/12 09:11:52;;;;;;;11.67;8.63;;;4.20;85.80;;;4.16;69.32;98470.75;4906774;29;20068;-41
2021/04/12 09:14:43;;;;;;;10.83;7.13;;;4.20;83.30;;;4.15;68.10;98482.25;4907846;29;20052;-42
2021/04/12 09:17:46;;;;;;;9.50;6.80;;;4.30;82.00;;;4.41;68.64;98459.44;4893829;29;20475;-42
2021/04/12 09:20:46;;;;;;;11.07;7.20;;;4.40;81.60;;;4.43;68.03;98470.72;4892252;29;20052;-42
2021/04/12 09:23:56;;;;;;;9.40;6.27;;;4.50;79.80;;;4.42;66.16;98474.31;4909157;29;20066;-43
2021/04/12 09:27:01;;;;;;;6.80;5.47;;;4.50;77.40;;;4.43;65.80;98472.50;4905151;29;20338;-42
2021/04/12 09:29:53;;;;;;;10.70;6.03;;;4.50;77.10;;;4.63;66.22;98479.91;4908985;29;20059;-41
2021/04/12 09:33:00;;;;;;;8.53;6.43;;;4.70;78.00;;;4.76;65.64;98482.59;4908608;29;20052;-45
2021/04/12 09:35:49;;;;;;;13.13;6.10;;;4.80;77.30;;;4.89;64.78;98487.88;4909432;29;20048;-41
2021/04/12 09:38:59;;;;;;;12.80;7.17;;;4.90;75.50;;;4.90;64.63;98489.56;4909534;29;20413;-42
2021/04/12 09:41:51;;;;;;;7.03;5.80;;;4.90;75.50;;;4.79;64.37;98492.94;4908922;29;20059;-40
2021/04/12 09:44:50;;;;;;;8.40;5.60;;;4.80;75.00;;;4.80;64.05;98491.97;4907297;29;20056;-41
2021/04/12 09:48:00;;;;;;;8.83;5.67;;;5.00;73.50;;;5.06;64.05;98492.84;4909209;29;20249;-41
2021/04/12 09:51:02;;;;;;;5.00;3.63;;;5.10;76.70;;;5.10;59.19;98486.41;4907474;29;20063;-40
2021/04/12 09:54:12;;;;;;;6.17;5.00;;;5.20;67.30;;;5.24;63.42;98489.88;4907230;29;20055;-42
2021/04/12 09:57:10;;;;;;;5.97;4.80;;;5.30;71.20;;;5.20;61.87;98497.16;4905479;29;20223;-41
2021/04/12 09:59:58;;;;;;;8.00;4.80;;;5.20;70.30;;;5.24;62.16;98496.00;4907345;29;20060;-40
2021/04/12 10:03:15;;;;;;;5.47;4.43;;;5.10;71.10;;;5.13;59.01;98519.66;4907998;29;20078;-41
2021/04/12 10:06:19;;;;;;;6.87;3.93;;;5.10;67.50;;;5.25;58.68;98512.69;4908692;29;20055;-41
2021/04/12 10:09:29;;;;;;;5.27;3.70;;;5.30;69.00;;;5.28;58.15;98515.94;4908641;29;20273;-40
2021/04/12 10:12:31;;;;;;;4.20;3.07;;;5.30;66.80;;;5.12;56.21;98523.25;4910177;29;20059;-40
2021/04/12 10:15:42;;;;;;;6.90;3.17;;;5.20;63.70;;;5.31;56.27;98514.88;4906224;29;20045;-41
2021/04/12 10:18:33;;;;;;;4.47;3.30;;;5.30;63.10;;;5.57;58.66;98518.34;4909108;29;20230;-40
2021/04/12 10:21:33;;;;;;;4.90;3.00;;;5.60;63.80;;;5.50;53.61;98522.38;4909242;29;20066;-39
2021/04/12 10:24:27;;;;;;;3.80;2.57;;;5.70;63.40;;;5.67;56.54;98527.31;4891478;29;20230;-44
2021/04/12 10:27:10;;;;;;;;;;;5.70;63.00;;;5.59;55.50;98529.66;4892151;29;20249;-43
2021/04/12 10:29:53;;;;;;;6.40;3.80;;;5.60;61.90;;;5.67;54.21;98527.31;4892182;29;19927;-41
2021/04/12 10:32:34;;;;;;;4.63;3.33;;;5.80;60.90;;;5.56;53.36;98521.94;4893735;29;20070;-44
2021/04/12 10:35:26;;;;;;;4.80;3.20;;;5.70;59.90;;;5.86;57.60;98513.63;4907244;29;20052;-43
2021/04/12 10:38:21;;;;;;;4.30;3.43;;;5.90;64.10;;;5.83;54.99;98515.66;4893737;29;20341;-43
2021/04/12 10:40:59;;;;;;;9.87;3.17;;;5.80;63.90;;;5.73;51.49;98513.66;4906636;29;20054;-42
2021/04/12 10:44:31;;;;;;;5.77;3.00;;;5.70;57.30;;;5.82;53.49;98522.75;4908625;29;20056;-47
2021/04/12 10:47:18;;;;;;;4.43;2.90;;;5.70;60.50;;;5.67;52.77;98511.47;4896355;29;20074;-45
2021/04/12 10:50:35;;;;;;;5.03;3.17;;;5.70;61.30;;;5.79;56.29;98501.81;4909764;29;20063;-43
2021/04/12 10:53:49;;;;;;;5.53;2.90;;;5.70;62.10;;;5.78;53.01;98508.06;4901308;29;20377;-45
2021/04/12 10:56:42;;;;;;;4.67;2.77;;;5.80;61.80;;;5.79;54.72;98499.16;4908568;29;20054;-47
2021/04/12 10:59:37;;;;;;;3.40;2.40;;;5.80;61.90;;;5.91;52.50;98503.59;4889663;29;20400;-43
2021/04/12 11:03:12;;;;;;;3.57;2.80;;;6.00;59.80;;;6.18;54.40;98502.53;4901769;29;20241;-42
2021/04/12 11:05:45;;;;;;;3.20;2.05;;;6.30;58.90;;;6.37;52.98;98504.69;4889275;29;20056;-43
2021/04/12 11:08:22;;;;;;;;;;;6.50;59.50;;;6.44;50.85;98503.28;4896096;29;20052;-45
2021/04/12 11:11:31;;;;;;;4.57;2.33;;;6.60;56.20;;;6.49;51.23;98501.13;4911632;29;20124;-43
2021/04/12 11:14:23;;;;;;;2.60;1.90;;;6.60;55.40;;;6.41;47.22;98511.44;4879363;29;20067;-45
2021/04/12 11:17:11;;;;;;;5.30;2.53;;;6.70;52.50;;;6.36;48.16;98507.44;4896781;29;20064;-47
2021/04/12 11:20:03;;;;;;;4.60;2.53;;;6.60;56.90;;;6.57;47.80;98502.34;4893665;29;20064;-50
2021/04/12 11:22:57;;;;;;;3.03;2.30;;;6.80;52.90;;;6.63;47.23;98510.69;4894798;29;20645;-45
2021/04/12 11:25:40;;;;;;;3.50;2.37;;;6.80;53.10;;;6.67;46.66;98517.44;4911397;29;20056;-45
2021/04/12 11:28:28;;;;;;;4.70;3.37;;;6.80;51.40;;;6.66;48.40;98509.59;4911199;29;20269;-45
2021/04/12 11:31:32;;;;;;;4.13;2.07;;;6.80;51.60;;;6.79;49.20;98507.72;4897503;29;20070;-45
2021/04/12 11:34:41;;;;;;;5.87;3.20;;;6.80;52.70;;;6.68;48.93;98510.31;4910668;29;20044;-43
2021/04/12 11:37:41;;;;;;;4.30;2.43;;;6.70;56.20;;;6.53;47.06;98511.47;4842346;29;20053;-46
2021/04/12 11:40:31;;;;;;;5.63;2.40;;;6.60;52.20;;;6.64;48.43;98507.06;4837489;29;20073;-43
2021/04/12 11:43:14;;;;;;;4.73;2.60;;;6.60;53.70;;;6.62;46.74;98505.50;4887730;29;20223;-45
2021/04/12 11:46:23;;;;;;;4.60;2.95;;;6.60;52.40;;;6.66;46.71;98501.66;4896071;29;20260;-43
2021/04/12 11:49:37;;;;;;;3.23;2.40;;;6.70;52.40;;;6.93;48.88;98500.53;4912017;29;20082;-44
2021/04/12 11:52:24;;;;;;;5.88;2.60;;;7.00;53.90;;;7.00;48.37;98507.91;4895982;29;20044;-43
2021/04/12 11:55:28;;;;;;;2.93;2.10;;;7.20;53.40;;;7.13;48.16;98510.41;4895495;29;20083;-44
2021/04/12 11:58:07;;;;;;;5.47;3.43;;;7.30;51.30;;;7.13;45.78;98506.94;4897144;29;20056;-47
2021/04/12 12:01:13;;;;;;;6.13;2.87;;;7.30;52.70;;;7.09;44.39;98512.50;4896179;29;20667;-44
2021/04/12 12:04:13;;;;;;;5.90;3.43;;;7.30;49.80;;;6.74;43.44;98507.22;4910425;29;20051;-46
2021/04/12 12:07:22;;;;;;;3.40;1.50;;;6.90;48.30;;;6.95;42.20;98503.91;4909898;29;20058;-43
2021/04/12 12:10:13;;;;;;;4.07;2.00;;;7.00;46.00;;;6.78;40.77;98516.59;4900651;29;20072;-43
2021/04/12 12:13:06;;;;;;;4.23;2.07;;;7.20;46.90;;;6.84;42.09;98505.56;4910027;29;20438;-44
2021/04/12 12:16:18;;;;;;;4.33;2.07;;;7.10;46.60;;;7.06;44.75;98517.16;4910565;29;20056;-44
2021/04/12 12:19:19;;;;;;;6.50;2.17;;;7.20;50.60;;;7.07;41.89;98521.50;4896233;29;20090;-44
2021/04/12 12:22:20;;;;;;;2.37;1.63;;;7.30;48.30;;;6.93;42.10;98525.19;4910347;29;20369;-43
2021/04/12 12:24:57;;;;;;;4.40;1.87;;;7.10;47.00;;;6.97;43.11;98521.34;4909999;29;20056;-44
2021/04/12 12:27:33;;;;;;;4.67;2.37;;;7.20;47.90;;;6.85;42.72;98514.34;4910222;29;20058;-47
2021/04/12 12:30:20;;;;;;;3.43;1.90;;;7.10;47.70;;;7.25;44.22;98513.94;4910344;29;20052;-45
2021/04/12 12:33:06;;;;;;;6.63;1.77;;;7.50;50.40;;;7.34;42.42;98513.22;4908895;29;20071;-42
2021/04/12 12:35:58;;;;;;;5.40;2.17;;;7.70;47.30;;;7.40;44.84;98519.84;4910129;29;20063;-44
2021/04/12 12:38:51;;;;;;;3.17;1.90;;;7.50;48.00;;;7.32;42.22;98524.91;4895427;29;20273;-42
2021/04/12 12:41:24;;;;;;;3.03;1.67;;;7.50;47.30;;;7.28;42.26;98532.25;4892557;29;20051;-46
2021/04/12 12:44:03;;;;;;;2.30;1.63;;;7.40;47.50;;;7.29;43.20;98520.69;4893556;29;20059;-43
2021/04/12 12:46:36;;;;;;;2.93;2.13;;;7.30;49.30;;;7.24;43.81;98518.38;4909537;29;20078;-43
2021/04/12 12:49:33;;;;;;;3.67;2.57;;;7.40;48.70;;;7.37;45.25;98522.75;4892552;29;20064;-42
2021/04/12 12:52:03;;;;;;;3.07;1.87;;;7.50;51.50;;;7.55;43.20;98523.13;4907076;29;20064;-42